Time;durP1;ratioP1;P1;durP2;ratioP2;P2;SDS_P1;SDS_P2;PMS_P1;PMS_P2;Temp;Humidity;BMP_temperature;BMP_pressure;BME280_temperature;BME280_humidity;BME280_pressure;Samples;Min_cycle;Max_cycle;Signal;HPM_P1;HPM_P2
2022/04/02 00:01:19;;;;;;;3.78;0.82;;;2.10;99.90;;;;;;4996679;28;20081;-87
2022/04/02 00:03:44;;;;;;;4.95;1.10;;;2.10;99.90;;;;;;4979542;28;20065;-87
2022/04/02 00:06:10;;;;;;;3.78;0.80;;;2.10;99.90;;;;;;4964834;28;20042;-87
2022/04/02 00:08:35;;;;;;;2.85;0.80;;;2.10;99.90;;;;;;4971371;28;20046;-87
2022/04/02 00:11:02;;;;;;;2.38;0.90;;;2.00;99.90;;;;;;4978146;28;20054;-87
2022/04/02 00:13:30;;;;;;;2.10;0.95;;;2.00;99.90;;;;;;4970410;28;20699;-87
2022/04/02 00:15:57;;;;;;;2.20;0.70;;;2.10;99.90;;;;;;4985171;28;20439;-87
2022/04/02 00:18:22;;;;;;;4.10;0.70;;;2.10;99.90;;;;;;4979331;28;20030;-87
2022/04/02 00:20:48;;;;;;;4.78;0.80;;;2.00;99.90;;;;;;4972747;28;20030;-87
2022/04/02 00:25:58;;;;;;;2.72;0.90;;;2.00;99.90;;;;;;4978121;28;20422;-86
2022/04/02 00:28:23;;;;;;;5.47;0.88;;;2.00;99.90;;;;;;4978501;28;20019;-87
2022/04/02 00:30:49;;;;;;;3.20;1.15;;;2.00;99.90;;;;;;4978224;28;20122;-87
2022/04/02 00:33:14;;;;;;;3.60;0.90;;;2.00;99.90;;;;;;4978652;28;20038;-87
2022/04/02 00:35:40;;;;;;;3.67;0.88;;;1.90;99.90;;;;;;4969107;28;20407;-87
2022/04/02 00:38:06;;;;;;;3.72;0.75;;;2.00;99.90;;;;;;4979116;28;20030;-87
2022/04/02 00:40:31;;;;;;;2.88;0.85;;;1.90;99.90;;;;;;4996553;28;20026;-86
2022/04/02 00:42:57;;;;;;;2.90;1.10;;;1.90;99.90;;;;;;4976191;28;20177;-86
2022/04/02 00:45:22;;;;;;;3.30;0.90;;;1.90;99.90;;;;;;4964903;28;20119;-87
2022/04/02 00:47:48;;;;;;;3.28;0.70;;;1.90;99.90;;;;;;4974233;28;20104;-87
2022/04/02 00:50:14;;;;;;;6.80;1.30;;;1.90;99.90;;;;;;4969934;28;20121;-87
2022/04/02 00:52:40;;;;;;;4.63;0.77;;;1.90;99.90;;;;;;4975867;28;20471;-88
2022/04/02 00:55:06;;;;;;;6.53;1.30;;;1.90;99.90;;;;;;4965477;28;20073;-87
2022/04/02 00:57:31;;;;;;;6.38;1.20;;;1.90;99.90;;;;;;4970411;28;20033;-87
2022/04/02 00:59:57;;;;;;;2.30;0.90;;;1.80;99.90;;;;;;4977661;28;20441;-87
2022/04/02 01:02:22;;;;;;;6.72;0.90;;;1.80;99.90;;;;;;4976642;28;20585;-87
2022/04/02 01:04:48;;;;;;;3.58;0.95;;;1.80;99.90;;;;;;4961992;28;20097;-87
2022/04/02 01:07:19;;;;;;;4.03;0.75;;;1.80;99.90;;;;;;4959642;28;20023;-87
2022/04/02 01:09:45;;;;;;;4.22;0.90;;;1.80;99.90;;;;;;4991137;28;20050;-87
2022/04/02 01:12:11;;;;;;;4.68;1.00;;;1.80;99.90;;;;;;4973217;28;20034;-87
2022/04/02 01:14:37;;;;;;;7.68;1.00;;;1.80;99.90;;;;;;4977552;28;20034;-87
2022/04/02 01:17:04;;;;;;;4.88;0.85;;;1.80;99.90;;;;;;4978113;28;20034;-87
2022/04/02 01:19:30;;;;;;;3.25;0.70;;;1.80;99.90;;;;;;4973286;28;20027;-87
2022/04/02 01:21:55;;;;;;;3.25;0.88;;;1.80;99.90;;;;;;4977491;28;20081;-87
2022/04/02 01:24:21;;;;;;;4.35;0.90;;;1.80;99.90;;;;;;4974021;28;20041;-87
2022/04/02 01:26:47;;;;;;;2.15;0.85;;;1.80;99.90;;;;;;4978581;28;20037;-87
2022/04/02 01:29:12;;;;;;;2.45;0.90;;;1.80;99.90;;;;;;4972444;28;20045;-87
2022/04/02 01:31:43;;;;;;;2.38;0.70;;;1.80;99.90;;;;;;4977922;28;20026;-87
2022/04/02 01:34:09;;;;;;;3.63;0.73;;;1.80;99.90;;;;;;4977214;28;20116;-87
2022/04/02 01:36:34;;;;;;;3.70;0.93;;;1.80;99.90;;;;;;4977481;28;20069;-86
2022/04/02 01:39:00;;;;;;;3.35;0.90;;;1.80;99.90;;;;;;4977950;28;20026;-87
2022/04/02 01:41:25;;;;;;;3.28;0.85;;;1.80;99.90;;;;;;4976214;28;20031;-87
2022/04/02 01:43:51;;;;;;;7.38;1.15;;;1.80;99.90;;;;;;4977867;28;20030;-87
2022/04/02 01:46:17;;;;;;;2.67;0.98;;;1.80;99.90;;;;;;4965641;28;20042;-87
2022/04/02 01:48:42;;;;;;;4.32;0.80;;;1.80;99.90;;;;;;4977261;28;20042;-87
2022/04/02 01:51:08;;;;;;;3.15;0.70;;;1.80;99.90;;;;;;4959928;28;20031;-87
2022/04/02 01:53:34;;;;;;;4.65;0.70;;;1.70;99.90;;;;;;4964832;28;20494;-87
2022/04/02 01:56:00;;;;;;;5.10;0.93;;;1.80;99.90;;;;;;4976067;28;20026;-87
2022/04/02 01:58:25;;;;;;;2.50;0.88;;;1.80;99.90;;;;;;4961887;28;20027;-87
2022/04/02 02:00:51;;;;;;;2.35;0.70;;;1.80;99.90;;;;;;4972033;28;20031;-87
2022/04/02 02:03:17;;;;;;;3.03;0.70;;;1.80;99.90;;;;;;4974415;28;20050;-87
2022/04/02 02:05:43;;;;;;;2.78;0.80;;;1.80;99.90;;;;;;4972941;28;20487;-87
2022/04/02 02:08:09;;;;;;;5.43;1.08;;;1.80;99.90;;;;;;4969193;28;20022;-87
2022/04/02 02:10:35;;;;;;;6.10;0.95;;;1.80;99.90;;;;;;4973754;28;20129;-87
2022/04/02 02:13:00;;;;;;;3.22;0.70;;;1.90;99.90;;;;;;4971185;28;20172;-87
2022/04/02 02:15:27;;;;;;;3.03;0.70;;;1.90;99.90;;;;;;4973950;28;20117;-87
2022/04/02 02:17:53;;;;;;;3.03;0.90;;;1.90;99.90;;;;;;4969898;28;20026;-87
2022/04/02 02:20:20;;;;;;;12.25;0.80;;;1.90;99.90;;;;;;4979832;28;20475;-87
2022/04/02 02:22:47;;;;;;;1.77;0.60;;;1.90;99.90;;;;;;4976930;28;20065;-87
2022/04/02 02:25:15;;;;;;;2.35;0.80;;;1.90;99.90;;;;;;4976726;28;20034;-87
2022/04/02 02:27:42;;;;;;;3.50;0.80;;;1.90;99.90;;;;;;4976397;28;20026;-86
2022/04/02 02:30:10;;;;;;;3.42;1.08;;;1.90;99.90;;;;;;4976197;28;20034;-87
2022/04/02 02:32:39;;;;;;;5.97;0.73;;;1.90;99.90;;;;;;4961858;28;20022;-87
2022/04/02 02:37:50;;;;;;;3.58;0.70;;;1.80;99.90;;;;;;4984894;28;20033;-87
2022/04/02 02:40:15;;;;;;;2.38;0.70;;;1.90;99.90;;;;;;4970670;28;20402;-87
2022/04/02 02:42:41;;;;;;;3.33;0.70;;;1.90;99.90;;;;;;4974337;28;20026;-86
2022/04/02 02:45:07;;;;;;;2.85;0.65;;;1.80;99.90;;;;;;4976649;28;20042;-87
2022/04/02 02:47:33;;;;;;;1.98;0.80;;;1.80;99.90;;;;;;4963717;28;20031;-87
2022/04/02 02:50:00;;;;;;;2.63;0.80;;;1.80;99.90;;;;;;4975011;28;20026;-87
2022/04/02 02:52:26;;;;;;;2.88;0.70;;;1.80;99.90;;;;;;4976218;28;20031;-87
2022/04/02 02:54:52;;;;;;;2.78;0.70;;;1.80;99.90;;;;;;4971617;28;20027;-87
2022/04/02 02:57:17;;;;;;;2.92;0.65;;;1.80;99.90;;;;;;4975440;28;20026;-87
2022/04/02 02:59:43;;;;;;;3.50;0.80;;;1.70;99.90;;;;;;4972554;28;20058;-87
2022/04/02 03:02:11;;;;;;;2.90;0.60;;;1.70;99.90;;;;;;4976137;28;20504;-87
2022/04/02 03:04:37;;;;;;;6.10;0.90;;;1.70;99.90;;;;;;4975326;28;20538;-87
2022/04/02 03:07:03;;;;;;;2.95;0.82;;;1.70;99.90;;;;;;4976605;28;20124;-87
2022/04/02 03:09:28;;;;;;;2.50;0.80;;;1.60;99.90;;;;;;4974544;28;20058;-86
2022/04/02 03:11:55;;;;;;;1.80;0.70;;;1.60;99.90;;;;;;4970919;28;20121;-87
2022/04/02 03:14:21;;;;;;;4.13;0.68;;;1.60;99.90;;;;;;4973940;28;20031;-87
2022/04/02 03:16:47;;;;;;;4.80;0.77;;;1.60;99.90;;;;;;4975356;28;21361;-87
2022/04/02 03:19:12;;;;;;;3.55;0.90;;;1.60;99.90;;;;;;4974716;28;20037;-87
2022/04/02 03:21:38;;;;;;;2.95;0.80;;;1.50;99.90;;;;;;4979289;28;20042;-87
2022/04/02 03:24:04;;;;;;;4.35;1.17;;;1.50;99.90;;;;;;4975352;28;20276;-87
2022/04/02 03:26:29;;;;;;;3.15;0.82;;;1.50;99.90;;;;;;4964691;28;20125;-86
2022/04/02 03:28:55;;;;;;;2.30;0.68;;;1.50;99.90;;;;;;4973781;28;20030;-87
2022/04/02 03:31:22;;;;;;;7.88;2.03;;;1.50;99.90;;;;;;4977458;28;20037;-86
2022/04/02 03:33:48;;;;;;;2.97;0.85;;;1.50;99.90;;;;;;4971881;28;20018;-86
2022/04/02 03:36:13;;;;;;;5.30;0.82;;;1.50;99.90;;;;;;4975589;28;20041;-86
2022/04/02 03:38:39;;;;;;;4.22;0.98;;;1.50;99.90;;;;;;4973089;28;20557;-87
2022/04/02 03:41:05;;;;;;;7.22;0.82;;;1.40;99.90;;;;;;4974655;28;20057;-87
2022/04/02 03:43:31;;;;;;;2.80;0.80;;;1.40;99.90;;;;;;4974919;28;20046;-86
2022/04/02 03:47:08;;;;;;;3.80;0.80;;;1.40;99.90;;;;;;4978761;28;20049;-87
2022/04/02 03:48:43;;;;;;;4.43;0.80;;;1.30;99.90;;;;;;4993469;28;20027;-87
2022/04/02 03:51:09;;;;;;;2.92;0.82;;;1.30;99.90;;;;;;4970102;28;20144;-87
2022/04/02 03:53:34;;;;;;;3.53;0.75;;;1.30;99.90;;;;;;4976817;28;20026;-86
2022/04/02 03:56:00;;;;;;;2.92;1.13;;;1.30;99.90;;;;;;4977817;28;20161;-87
2022/04/02 03:58:27;;;;;;;2.47;0.85;;;1.30;99.90;;;;;;4976692;28;20057;-87
2022/04/02 04:00:53;;;;;;;3.65;0.93;;;1.30;99.90;;;;;;4969867;28;20031;-87
2022/04/02 04:03:19;;;;;;;3.28;0.93;;;1.30;99.90;;;;;;4971814;28;20113;-86
2022/04/02 04:05:45;;;;;;;5.15;0.80;;;1.30;99.90;;;;;;4973809;28;20034;-86
2022/04/02 04:08:10;;;;;;;5.18;0.90;;;1.30;99.90;;;;;;4975209;28;20088;-87
2022/04/02 04:10:36;;;;;;;4.07;1.17;;;1.20;99.90;;;;;;4959139;28;20146;-86
2022/04/02 04:13:01;;;;;;;2.30;0.82;;;1.20;99.90;;;;;;4966025;28;20125;-87
2022/04/02 04:15:27;;;;;;;2.90;0.82;;;1.20;99.90;;;;;;4977640;28;20501;-87
2022/04/02 04:17:52;;;;;;;4.60;1.00;;;1.20;99.90;;;;;;4975591;28;20022;-86
2022/04/02 04:20:18;;;;;;;2.45;0.70;;;1.20;99.90;;;;;;4959962;28;20066;-87
2022/04/02 04:22:44;;;;;;;4.28;0.82;;;1.20;99.90;;;;;;4965415;28;20489;-87
2022/04/02 04:25:10;;;;;;;4.15;0.95;;;1.20;99.90;;;;;;4973108;28;20038;-86
2022/04/02 04:27:36;;;;;;;3.30;1.20;;;1.20;99.90;;;;;;4973768;28;20038;-87
2022/04/02 04:30:03;;;;;;;3.35;1.02;;;1.20;99.90;;;;;;4975882;28;20031;-87
2022/04/02 04:32:29;;;;;;;5.00;0.93;;;1.20;99.90;;;;;;4969267;28;20037;-87
2022/04/02 04:34:54;;;;;;;2.97;0.90;;;1.20;99.90;;;;;;4976593;28;20538;-87
2022/04/02 04:37:20;;;;;;;5.00;1.05;;;1.20;99.90;;;;;;4975201;28;20427;-87
2022/04/02 04:39:46;;;;;;;5.13;0.80;;;1.30;99.90;;;;;;4973037;28;20026;-87
2022/04/02 04:42:12;;;;;;;4.28;0.77;;;1.20;99.90;;;;;;4959171;28;20026;-87
2022/04/02 04:44:37;;;;;;;4.55;1.08;;;1.30;99.90;;;;;;4971514;28;20505;-87
2022/04/02 04:47:03;;;;;;;2.60;0.65;;;1.30;99.90;;;;;;4965842;28;20054;-87
2022/04/02 04:49:29;;;;;;;3.47;0.80;;;1.30;99.90;;;;;;4967039;28;20474;-87
2022/04/02 04:51:54;;;;;;;3.08;0.80;;;1.30;99.90;;;;;;4977342;28;20052;-87
2022/04/02 04:54:20;;;;;;;3.40;0.90;;;1.30;99.90;;;;;;4970506;28;20026;-87
2022/04/02 04:56:45;;;;;;;3.03;0.82;;;1.30;99.90;;;;;;4964671;28;20023;-87
2022/04/02 04:59:12;;;;;;;3.30;0.80;;;1.30;99.90;;;;;;4965627;28;20045;-87
2022/04/02 05:01:38;;;;;;;2.70;1.02;;;1.30;99.90;;;;;;4967824;28;20117;-87
2022/04/02 05:04:05;;;;;;;3.55;0.70;;;1.30;99.90;;;;;;4967044;28;20447;-87
2022/04/02 05:06:31;;;;;;;3.97;0.68;;;1.30;99.90;;;;;;4968704;28;20038;-87
2022/04/02 05:08:57;;;;;;;2.22;0.77;;;1.30;99.90;;;;;;4964192;28;20034;-87
2022/04/02 05:11:22;;;;;;;4.05;0.98;;;1.40;99.90;;;;;;4969444;28;20125;-87
2022/04/02 05:13:49;;;;;;;5.50;0.95;;;1.40;99.90;;;;;;4977451;28;20058;-87
2022/04/02 05:16:14;;;;;;;3.50;1.00;;;1.40;99.90;;;;;;4966494;28;20027;-87
2022/04/02 05:18:40;;;;;;;2.38;0.73;;;1.50;99.90;;;;;;4975384;28;20252;-86
2022/04/02 05:21:06;;;;;;;4.53;0.95;;;1.50;99.90;;;;;;4978380;28;20037;-86
2022/04/02 05:23:31;;;;;;;2.92;0.80;;;1.50;99.90;;;;;;4973731;28;20030;-87
2022/04/02 05:25:58;;;;;;;2.92;1.00;;;1.50;99.90;;;;;;4972800;28;20046;-85
2022/04/02 05:28:23;;;;;;;3.13;0.80;;;1.50;99.90;;;;;;4971328;28;20050;-87
2022/04/02 05:30:49;;;;;;;2.92;0.65;;;1.60;99.90;;;;;;4969689;28;20397;-87
2022/04/02 05:33:15;;;;;;;3.22;0.90;;;1.60;99.90;;;;;;4975934;28;20037;-87
2022/04/02 05:35:40;;;;;;;3.85;0.82;;;1.60;99.90;;;;;;4965976;28;20031;-87
2022/04/02 05:38:06;;;;;;;3.05;0.95;;;1.60;99.90;;;;;;4968852;28;20504;-87
2022/04/02 05:40:31;;;;;;;3.55;0.90;;;1.60;99.90;;;;;;4972362;28;20015;-87
2022/04/02 05:42:57;;;;;;;3.38;0.73;;;1.60;99.90;;;;;;4959697;28;20069;-87
2022/04/02 05:45:23;;;;;;;3.13;0.80;;;1.60;99.90;;;;;;4960323;28;20074;-87
2022/04/02 05:47:50;;;;;;;4.30;0.60;;;1.60;99.90;;;;;;4972873;28;20022;-87
2022/04/02 05:50:17;;;;;;;2.97;0.80;;;1.60;99.90;;;;;;4976200;28;20054;-87
2022/04/02 05:52:43;;;;;;;5.25;0.98;;;1.50;99.90;;;;;;4958648;28;20023;-88
2022/04/02 05:55:13;;;;;;;1.98;0.90;;;1.50;99.90;;;;;;4962924;28;20044;-87
2022/04/02 05:57:40;;;;;;;7.18;0.98;;;1.50;99.90;;;;;;4970170;28;20030;-88
2022/04/02 06:00:08;;;;;;;3.58;1.10;;;1.50;99.90;;;;;;4974034;28;20030;-87
2022/04/02 06:02:35;;;;;;;3.03;0.93;;;1.50;99.90;;;;;;4975112;28;20482;-87
2022/04/02 06:05:01;;;;;;;2.05;0.60;;;1.50;99.90;;;;;;4963352;28;20038;-86
2022/04/02 06:07:26;;;;;;;4.40;0.93;;;1.50;99.90;;;;;;4974525;28;20031;-86
2022/04/02 06:09:52;;;;;;;5.03;0.80;;;1.50;99.90;;;;;;4976601;28;20053;-86
2022/04/02 06:12:18;;;;;;;4.53;0.98;;;1.50;99.90;;;;;;4975498;28;20386;-87
2022/04/02 06:14:43;;;;;;;2.60;0.63;;;1.60;99.90;;;;;;4977038;28;20019;-87
2022/04/02 06:17:09;;;;;;;3.55;0.90;;;1.60;99.90;;;;;;4970867;28;20132;-88
2022/04/02 06:19:34;;;;;;;8.13;0.80;;;1.60;99.90;;;;;;4971885;28;20077;-87
2022/04/02 06:22:00;;;;;;;4.05;0.95;;;1.60;99.90;;;;;;4977036;28;20022;-87
2022/04/02 06:24:26;;;;;;;4.07;1.08;;;1.70;99.90;;;;;;4982533;28;20483;-87
2022/04/02 06:26:51;;;;;;;5.40;1.25;;;1.70;99.90;;;;;;4976578;28;20041;-87
2022/04/02 06:29:19;;;;;;;3.90;0.98;;;1.70;99.90;;;;;;4975872;28;20056;-87
2022/04/02 06:31:45;;;;;;;1.85;0.70;;;1.70;99.90;;;;;;4975054;28;20085;-87
2022/04/02 06:34:11;;;;;;;4.65;1.10;;;1.80;99.90;;;;;;4968702;28;20030;-87
2022/04/02 06:36:36;;;;;;;5.15;1.00;;;1.80;99.90;;;;;;4972271;28;20367;-87
2022/04/02 06:39:02;;;;;;;6.07;1.08;;;1.90;99.90;;;;;;4968682;28;20050;-85
2022/04/02 06:41:28;;;;;;;5.82;1.02;;;1.90;99.90;;;;;;4965201;28;20030;-87
2022/04/02 06:43:53;;;;;;;3.60;1.40;;;1.90;99.90;;;;;;4973894;28;20109;-87
2022/04/02 06:46:19;;;;;;;6.93;1.15;;;1.90;99.90;;;;;;4974906;28;20061;-87
2022/04/02 06:48:45;;;;;;;4.38;1.00;;;2.00;99.90;;;;;;4966392;28;20026;-87
2022/04/02 06:51:10;;;;;;;2.78;0.73;;;2.10;99.90;;;;;;4961204;28;20114;-87
2022/04/02 06:53:36;;;;;;;4.57;1.00;;;2.10;99.90;;;;;;4963422;28;20033;-86
2022/04/02 06:56:01;;;;;;;4.10;1.20;;;2.10;99.90;;;;;;4971573;28;20030;-86
2022/04/02 06:58:39;;;;;;;4.97;1.00;;;2.20;99.90;;;;;;4961070;28;20379;-87
2022/04/02 07:01:05;;;;;;;3.22;0.90;;;2.30;99.90;;;;;;4964008;28;20038;-87
2022/04/02 07:03:31;;;;;;;3.85;1.25;;;2.40;99.90;;;;;;4957031;28;20506;-86
2022/04/02 07:05:56;;;;;;;7.43;1.25;;;2.40;99.90;;;;;;4972665;28;20036;-87
2022/04/02 07:08:22;;;;;;;6.47;1.20;;;2.50;99.90;;;;;;4975806;28;20022;-85
2022/04/02 07:10:48;;;;;;;5.78;1.42;;;2.70;99.90;;;;;;4969190;28;20202;-85
2022/04/02 07:13:14;;;;;;;3.28;1.10;;;2.80;99.90;;;;;;4992589;28;20038;-86
2022/04/02 07:15:40;;;;;;;5.78;1.10;;;2.90;99.90;;;;;;4978832;28;20080;-85
2022/04/02 07:18:08;;;;;;;6.07;1.70;;;2.90;99.90;;;;;;4975244;28;20038;-86
2022/04/02 07:20:35;;;;;;;3.67;0.98;;;3.00;99.90;;;;;;4972981;28;20035;-86
2022/04/02 07:23:08;;;;;;;4.25;1.17;;;3.10;99.90;;;;;;4964905;28;20093;-85
2022/04/02 07:25:35;;;;;;;;;;;3.10;99.90;;;;;;4970025;28;20042;-86
2022/04/02 07:28:01;;;;;;;5.10;1.25;;;3.20;99.90;;;;;;4974553;28;19917;-85
2022/04/02 07:30:27;;;;;;;3.53;0.95;;;3.20;99.90;;;;;;4971816;28;20037;-85
2022/04/02 07:32:52;;;;;;;3.42;1.38;;;3.30;99.90;;;;;;4973472;28;20530;-86
2022/04/02 07:35:19;;;;;;;4.53;1.17;;;3.30;99.90;;;;;;4969762;28;20022;-86
2022/04/02 07:37:52;;;;;;;5.75;1.00;;;3.40;99.90;;;;;;4962875;28;20077;-85
2022/04/02 07:40:24;;;;;;;3.15;0.90;;;3.50;99.90;;;;;;4972183;28;20030;-85
2022/04/02 07:43:10;;;;;;;6.45;1.10;;;3.50;99.90;;;;;;4968432;28;20114;-85
2022/04/02 07:45:40;;;;;;;5.28;1.35;;;3.70;99.90;;;;;;4974206;28;20082;-85
2022/04/02 07:48:10;;;;;;;7.18;1.85;;;3.70;99.90;;;;;;4972886;28;20121;-85
2022/04/02 07:50:41;;;;;;;2.47;1.00;;;3.60;99.90;;;;;;4967803;28;20027;-85
2022/04/02 07:53:11;;;;;;;2.92;1.17;;;3.70;99.90;;;;;;4966912;28;20471;-84
2022/04/02 07:55:41;;;;;;;4.20;1.80;;;3.70;99.90;;;;;;4970906;28;20029;-85
2022/04/02 07:58:11;;;;;;;3.60;1.10;;;3.80;99.90;;;;;;4959962;28;20094;-84
2022/04/02 08:00:39;;;;;;;4.53;1.10;;;3.80;99.90;;;;;;4965450;28;20018;-85
2022/04/02 08:03:08;;;;;;;3.38;1.20;;;3.80;99.90;;;;;;4973476;28;20536;-84
2022/04/02 08:05:34;;;;;;;3.85;1.45;;;3.80;99.90;;;;;;4960314;28;20039;-85
2022/04/02 08:08:01;;;;;;;5.20;1.30;;;3.80;99.90;;;;;;4966519;28;20056;-85
2022/04/02 08:10:28;;;;;;;3.67;1.02;;;3.90;99.90;;;;;;4967699;28;20082;-84
2022/04/02 08:12:55;;;;;;;3.88;1.23;;;4.00;99.90;;;;;;4974575;28;20026;-86
2022/04/02 08:15:22;;;;;;;5.05;1.17;;;4.00;99.90;;;;;;4971337;28;20045;-86
2022/04/02 08:17:54;;;;;;;5.43;1.42;;;4.20;99.90;;;;;;4964020;28;20051;-86
2022/04/02 08:20:20;;;;;;;7.93;2.10;;;4.30;99.90;;;;;;4969051;28;20041;-86
2022/04/02 08:22:47;;;;;;;3.28;1.02;;;4.40;99.70;;;;;;4974791;28;20022;-86
2022/04/02 08:25:14;;;;;;;5.15;1.25;;;4.50;99.70;;;;;;4974765;28;20085;-86
2022/04/02 08:27:45;;;;;;;4.40;1.80;;;4.60;99.60;;;;;;4978179;28;20018;-86
2022/04/02 08:30:17;;;;;;;3.85;1.30;;;4.80;99.30;;;;;;4969014;28;20019;-86
2022/04/02 08:33:20;;;;;;;5.53;1.87;;;4.90;98.70;;;;;;4974856;28;20030;-86
2022/04/02 08:35:52;;;;;;;5.85;1.92;;;5.00;98.80;;;;;;4974430;28;20033;-87
2022/04/02 08:38:40;;;;;;;2.85;1.38;;;5.10;98.40;;;;;;4967743;28;20506;-86
2022/04/02 08:41:12;;;;;;;4.13;1.77;;;5.20;97.70;;;;;;4977302;28;20470;-86
2022/04/02 08:44:08;;;;;;;4.43;1.60;;;5.20;97.30;;;;;;4977669;28;20450;-86
2022/04/02 08:46:35;;;;;;;3.38;1.30;;;5.10;96.70;;;;;;4972833;28;20046;-86
2022/04/02 08:49:27;;;;;;;6.03;1.40;;;5.10;96.40;;;;;;4976455;28;20041;-87
2022/04/02 08:52:17;;;;;;;7.43;1.50;;;5.10;96.60;;;;;;4960730;28;20478;-86
2022/04/02 08:55:09;;;;;;;7.40;1.60;;;5.20;96.80;;;;;;4974488;28;20026;-87
2022/04/02 08:57:53;;;;;;;3.40;1.50;;;5.20;96.70;;;;;;4970529;28;20040;-87
2022/04/02 09:00:24;;;;;;;5.72;1.55;;;5.30;96.50;;;;;;4977181;28;20050;-87
2022/04/02 09:03:17;;;;;;;6.85;2.00;;;5.20;96.20;;;;;;4978132;28;20026;-86
2022/04/02 09:06:01;;;;;;;5.78;1.45;;;5.10;96.10;;;;;;4967460;28;20042;-87
2022/04/02 09:08:32;;;;;;;3.25;1.30;;;5.10;96.00;;;;;;4965906;28;20034;-86
2022/04/02 09:11:20;;;;;;;4.77;1.37;;;5.00;95.80;;;;;;4973926;28;20082;-87
2022/04/02 09:14:14;;;;;;;4.15;1.88;;;5.00;96.30;;;;;;4966284;28;20027;-87
2022/04/02 09:17:13;;;;;;;5.97;1.65;;;5.10;96.30;;;;;;4975353;28;20122;-86
2022/04/02 09:19:49;;;;;;;6.20;1.85;;;5.10;96.20;;;;;;4962039;28;20034;-86
2022/04/02 09:22:29;;;;;;;3.42;1.65;;;5.10;96.40;;;;;;4970334;28;20019;-86
2022/04/02 09:25:25;;;;;;;5.22;1.77;;;5.30;96.40;;;;;;4978011;28;20533;-85
2022/04/02 09:28:00;;;;;;;4.22;1.90;;;5.60;95.90;;;;;;4970346;28;20026;-86
2022/04/02 09:30:32;;;;;;;4.45;1.55;;;5.80;95.90;;;;;;4971764;28;20077;-87
2022/04/02 09:33:01;;;;;;;3.45;1.67;;;6.00;95.20;;;;;;4974187;28;20026;-86
2022/04/02 09:36:03;;;;;;;6.50;1.60;;;6.00;94.60;;;;;;4976296;28;20046;-86
2022/04/02 09:39:03;;;;;;;5.82;2.15;;;6.00;94.80;;;;;;4986558;28;20386;-86
2022/04/02 09:41:40;;;;;;;6.75;2.25;;;6.10;94.40;;;;;;4978774;28;20101;-86
2022/04/02 09:44:29;;;;;;;5.47;1.88;;;6.20;94.90;;;;;;4978743;28;20486;-86
2022/04/02 09:47:13;;;;;;;5.78;1.67;;;6.30;94.30;;;;;;4962276;28;20039;-86
2022/04/02 09:50:16;;;;;;;3.90;1.15;;;6.30;92.80;;;;;;4975200;28;20080;-86
2022/04/02 09:52:58;;;;;;;5.40;1.30;;;6.20;91.10;;;;;;4967007;28;20475;-86
2022/04/02 09:55:27;;;;;;;2.95;1.25;;;6.00;90.60;;;;;;4968034;28;20041;-85
2022/04/02 09:58:30;;;;;;;4.88;1.38;;;5.90;90.30;;;;;;4967139;28;20026;-86
2022/04/02 10:01:03;;;;;;;4.35;1.40;;;5.80;90.30;;;;;;4992590;28;20033;-86
2022/04/02 10:03:52;;;;;;;4.55;1.45;;;5.70;90.90;;;;;;4973810;28;20026;-86
2022/04/02 10:06:20;;;;;;;2.83;1.25;;;5.70;91.30;;;;;;4959715;28;20034;-86
2022/04/02 10:09:08;;;;;;;4.70;1.45;;;5.70;91.50;;;;;;4961786;28;20376;-86
2022/04/02 10:11:38;;;;;;;4.25;1.40;;;5.70;91.50;;;;;;4974220;28;20039;-86
2022/04/02 10:14:03;;;;;;;6.45;1.80;;;5.80;91.80;;;;;;4976928;28;20018;-85
2022/04/02 10:16:31;;;;;;;3.67;1.38;;;5.80;91.60;;;;;;4979620;28;20100;-86
2022/04/02 10:18:59;;;;;;;4.93;1.05;;;5.90;91.50;;;;;;4974203;28;20026;-86
2022/04/02 10:21:27;;;;;;;3.67;1.10;;;5.90;90.90;;;;;;4978764;28;20029;-86
2022/04/02 10:24:21;;;;;;;2.85;1.30;;;5.80;90.00;;;;;;4970717;28;20023;-86
2022/04/02 10:26:55;;;;;;;4.53;1.17;;;5.80;89.90;;;;;;4970713;28;20127;-85
2022/04/02 10:29:57;;;;;;;2.65;0.95;;;6.00;88.70;;;;;;4977186;28;20130;-86
2022/04/02 10:32:33;;;;;;;2.70;0.90;;;6.10;86.60;;;;;;4977289;28;20041;-85
2022/04/02 10:35:11;;;;;;;4.18;1.00;;;6.00;83.20;;;;;;4968943;28;20027;-85
2022/04/02 10:37:39;;;;;;;3.28;1.00;;;6.00;82.10;;;;;;4970660;28;20026;-86
2022/04/02 10:40:06;;;;;;;4.85;1.10;;;6.00;81.00;;;;;;4978699;28;20040;-86
2022/04/02 10:42:38;;;;;;;3.05;1.33;;;6.00;81.50;;;;;;4978704;28;20027;-86
2022/04/02 10:45:14;;;;;;;4.57;0.95;;;6.10;81.90;;;;;;4976050;28;20509;-86
2022/04/02 10:47:46;;;;;;;4.00;0.90;;;6.20;80.90;;;;;;4966084;28;20026;-86
2022/04/02 10:50:16;;;;;;;4.38;0.77;;;6.30;81.00;;;;;;4967366;28;20404;-85
2022/04/02 10:52:43;;;;;;;3.42;0.75;;;6.40;79.70;;;;;;4971297;28;20038;-86
2022/04/02 10:55:11;;;;;;;1.55;0.70;;;6.30;77.10;;;;;;4971898;28;20103;-86
2022/04/02 10:57:37;;;;;;;2.22;0.70;;;6.20;76.10;;;;;;4972788;28;20034;-86
2022/04/02 11:00:08;;;;;;;2.05;0.63;;;6.10;75.00;;;;;;4978401;28;20027;-85
2022/04/02 11:02:49;;;;;;;1.48;0.60;;;6.10;75.60;;;;;;4975491;28;20037;-85
2022/04/02 11:05:17;;;;;;;1.90;0.60;;;6.30;75.80;;;;;;4962522;28;20042;-86
2022/04/02 11:07:48;;;;;;;2.53;0.60;;;6.40;75.30;;;;;;4975189;28;20018;-86
2022/04/02 11:10:21;;;;;;;1.83;0.70;;;6.50;74.40;;;;;;4975683;28;20077;-85
2022/04/02 11:12:50;;;;;;;2.40;0.88;;;6.50;73.60;;;;;;4974278;28;20031;-86
2022/04/02 11:15:24;;;;;;;2.58;0.85;;;6.60;74.10;;;;;;4979184;28;20034;-86
2022/04/02 11:17:53;;;;;;;4.53;0.93;;;6.70;74.80;;;;;;4974602;28;20018;-86
2022/04/02 11:20:23;;;;;;;1.70;0.63;;;6.90;75.20;;;;;;4976972;28;20026;-85
2022/04/02 11:22:53;;;;;;;3.47;0.57;;;6.90;73.30;;;;;;4968662;28;20023;-86
2022/04/02 11:25:31;;;;;;;3.25;0.70;;;6.90;71.80;;;;;;4959217;28;20058;-86
2022/04/02 11:28:08;;;;;;;1.20;0.40;;;6.90;69.50;;;;;;4961600;28;20130;-85
2022/04/02 11:30:40;;;;;;;2.60;0.47;;;7.00;69.80;;;;;;4966191;28;20022;-86
2022/04/02 11:33:06;;;;;;;1.25;0.45;;;6.90;69.20;;;;;;4969635;28;20081;-86
2022/04/02 11:35:37;;;;;;;1.52;0.40;;;6.90;69.80;;;;;;4969702;28;20485;-86
2022/04/02 11:38:03;;;;;;;1.23;0.40;;;7.00;69.30;;;;;;4966653;28;20133;-86
2022/04/02 11:40:31;;;;;;;3.97;0.50;;;7.00;67.50;;;;;;4973770;28;20114;-86
2022/04/02 11:43:01;;;;;;;2.08;0.75;;;7.00;67.40;;;;;;4968162;28;20030;-86
2022/04/02 11:45:28;;;;;;;2.35;0.70;;;7.20;67.30;;;;;;4980727;28;20473;-86
2022/04/02 11:48:05;;;;;;;2.40;0.50;;;7.20;67.90;;;;;;4971673;28;20122;-87
2022/04/02 11:50:34;;;;;;;2.35;0.57;;;7.50;68.40;;;;;;4979696;28;20033;-86
2022/04/02 11:53:00;;;;;;;3.72;0.98;;;7.60;68.20;;;;;;4964659;28;20486;-86
2022/04/02 11:55:27;;;;;;;2.30;0.60;;;7.80;68.20;;;;;;4972730;28;20037;-86
2022/04/02 11:58:06;;;;;;;3.20;0.50;;;8.00;67.60;;;;;;4978614;28;20019;-85
2022/04/02 12:00:35;;;;;;;1.98;0.57;;;8.00;67.60;;;;;;4978464;28;20061;-87
2022/04/02 12:03:01;;;;;;;4.28;0.60;;;7.90;66.40;;;;;;4981397;28;20026;-86
2022/04/02 12:05:39;;;;;;;2.65;0.90;;;7.70;65.50;;;;;;4981132;28;20049;-86
2022/04/02 12:08:05;;;;;;;3.47;0.93;;;7.50;65.20;;;;;;4980544;28;20030;-86
2022/04/02 12:10:32;;;;;;;2.40;0.50;;;7.40;65.20;;;;;;4980544;28;20100;-86
2022/04/02 12:12:59;;;;;;;2.60;0.60;;;7.30;66.00;;;;;;4981274;28;20466;-86
2022/04/02 12:15:25;;;;;;;1.85;0.70;;;7.30;66.70;;;;;;4971594;28;20029;-86
2022/04/02 12:18:12;;;;;;;1.33;0.50;;;7.40;65.60;;;;;;4972667;28;20029;-87
2022/04/02 12:20:40;;;;;;;2.03;0.50;;;7.40;64.80;;;;;;4961119;28;20049;-85
2022/04/02 12:23:13;;;;;;;2.28;0.63;;;7.40;63.40;;;;;;4984593;28;20508;-86
2022/04/02 12:25:41;;;;;;;3.65;0.70;;;7.50;64.60;;;;;;4975486;28;20083;-87
2022/04/02 12:28:15;;;;;;;3.47;0.60;;;7.50;64.90;;;;;;4981344;28;20109;-85
2022/04/02 12:30:46;;;;;;;6.13;1.17;;;7.40;65.10;;;;;;4980525;28;20879;-89
2022/04/02 12:33:15;;;;;;;4.88;0.63;;;7.40;66.50;;;;;;4981144;28;20030;-87
2022/04/02 12:35:54;;;;;;;2.28;0.50;;;7.40;67.90;;;;;;4981014;28;20077;-87
2022/04/02 12:38:32;;;;;;;3.72;1.05;;;7.40;69.10;;;;;;4981470;28;20552;-88
2022/04/02 12:40:59;;;;;;;2.22;0.50;;;7.30;69.40;;;;;;4981382;28;20038;-86
2022/04/02 12:43:30;;;;;;;2.63;0.70;;;7.30;69.90;;;;;;4973021;28;20023;-88
2022/04/02 12:45:56;;;;;;;3.75;0.73;;;7.20;70.50;;;;;;4966215;28;20045;-87
2022/04/02 12:48:24;;;;;;;5.53;0.80;;;7.20;70.90;;;;;;4979297;28;20023;-86
2022/04/02 12:50:54;;;;;;;4.15;0.70;;;7.30;71.70;;;;;;4981106;28;20037;-86
2022/04/02 12:53:30;;;;;;;2.08;0.50;;;7.60;72.40;;;;;;4977308;28;20018;-86
2022/04/02 12:55:58;;;;;;;2.88;0.40;;;7.90;72.00;;;;;;4974612;28;20030;-87
2022/04/02 12:58:41;;;;;;;1.65;0.45;;;8.10;68.90;;;;;;4975993;28;20037;-86
2022/04/02 13:01:33;;;;;;;2.88;0.70;;;8.00;66.00;;;;;;4979759;28;20054;-87
2022/04/02 13:03:59;;;;;;;1.37;0.50;;;8.00;66.90;;;;;;4971337;28;20031;-87
2022/04/02 13:06:26;;;;;;;2.78;0.52;;;7.90;66.60;;;;;;4971054;28;20053;-87
2022/04/02 13:09:07;;;;;;;1.40;0.40;;;7.70;67.50;;;;;;4975822;28;20035;-86
2022/04/02 13:11:56;;;;;;;2.72;0.50;;;7.50;68.10;;;;;;4970128;28;20496;-87
2022/04/02 13:14:38;;;;;;;5.95;0.80;;;7.40;68.10;;;;;;4973354;28;20482;-87
2022/04/02 13:17:11;;;;;;;;;;;7.20;67.50;;;;;;4974623;28;20027;-87